sensor_id;sensor_type;location;lat;lon;timestamp;pressure;altitude;pressure_sealevel;temperature;humidity
62055;BME280;48653;51.742;-1.256;2022-12-29T00:03:46;98657.49;;;6.13;61.94
62055;BME280;48653;51.742;-1.256;2022-12-29T00:06:11;98663.70;;;6.70;61.87
62055;BME280;48653;51.742;-1.256;2022-12-29T00:08:35;98658.42;;;6.57;63.01
62055;BME280;48653;51.742;-1.256;2022-12-29T00:11:01;98656.43;;;6.02;63.81
62055;BME280;48653;51.742;-1.256;2022-12-29T00:13:27;98650.20;;;6.29;63.40
62055;BME280;48653;51.742;-1.256;2022-12-29T00:15:52;98641.59;;;6.03;63.66
62055;BME280;48653;51.742;-1.256;2022-12-29T00:18:17;98640.98;;;6.09;63.46
62055;BME280;48653;51.742;-1.256;2022-12-29T00:20:43;98650.34;;;6.28;62.95
62055;BME280;48653;51.742;-1.256;2022-12-29T00:23:08;98643.33;;;5.93;63.34
62055;BME280;48653;51.742;-1.256;2022-12-29T00:25:36;98639.08;;;5.74;63.56
62055;BME280;48653;51.742;-1.256;2022-12-29T00:27:59;98652.84;;;6.21;62.43
62055;BME280;48653;51.742;-1.256;2022-12-29T00:30:24;98641.05;;;6.32;62.56
62055;BME280;48653;51.742;-1.256;2022-12-29T00:32:49;98641.86;;;5.61;64.05
62055;BME280;48653;51.742;-1.256;2022-12-29T00:35:22;98651.21;;;5.89;63.29
62055;BME280;48653;51.742;-1.256;2022-12-29T00:37:42;98636.43;;;5.95;62.71
62055;BME280;48653;51.742;-1.256;2022-12-29T00:40:05;98635.05;;;5.87;62.88
62055;BME280;48653;51.742;-1.256;2022-12-29T00:42:30;98642.06;;;6.10;62.86
62055;BME280;48653;51.742;-1.256;2022-12-29T00:44:55;98640.45;;;5.69;62.92
62055;BME280;48653;51.742;-1.256;2022-12-29T00:47:20;98632.96;;;5.47;63.49
62055;BME280;48653;51.742;-1.256;2022-12-29T00:49:45;98634.76;;;5.80;62.95
62055;BME280;48653;51.742;-1.256;2022-12-29T00:52:12;98633.33;;;5.66;63.33
62055;BME280;48653;51.742;-1.256;2022-12-29T00:54:37;98635.45;;;6.26;62.09
62055;BME280;48653;51.742;-1.256;2022-12-29T00:57:01;98637.01;;;5.88;63.98
62055;BME280;48653;51.742;-1.256;2022-12-29T00:59:26;98632.49;;;5.83;63.39
62055;BME280;48653;51.742;-1.256;2022-12-29T01:01:52;98634.05;;;5.63;63.85
62055;BME280;48653;51.742;-1.256;2022-12-29T01:04:16;98617.34;;;5.76;63.91
62055;BME280;48653;51.742;-1.256;2022-12-29T01:06:42;98610.32;;;5.83;64.12
62055;BME280;48653;51.742;-1.256;2022-12-29T01:09:07;98604.12;;;5.89;63.61
62055;BME280;48653;51.742;-1.256;2022-12-29T01:11:32;98605.65;;;5.77;63.98
62055;BME280;48653;51.742;-1.256;2022-12-29T01:13:57;98598.22;;;6.00;63.55
62055;BME280;48653;51.742;-1.256;2022-12-29T01:16:22;98606.10;;;5.77;63.52
62055;BME280;48653;51.742;-1.256;2022-12-29T01:18:47;98605.01;;;5.86;63.75
62055;BME280;48653;51.742;-1.256;2022-12-29T01:21:12;98606.93;;;5.97;63.50
62055;BME280;48653;51.742;-1.256;2022-12-29T01:23:38;98598.79;;;5.98;63.50
62055;BME280;48653;51.742;-1.256;2022-12-29T01:26:08;98599.11;;;6.48;61.67
62055;BME280;48653;51.742;-1.256;2022-12-29T01:28:28;98600.00;;;6.16;61.81
62055;BME280;48653;51.742;-1.256;2022-12-29T01:30:54;98601.28;;;6.20;61.58
62055;BME280;48653;51.742;-1.256;2022-12-29T01:33:19;98599.91;;;5.79;61.87
62055;BME280;48653;51.742;-1.256;2022-12-29T01:35:44;98596.96;;;6.52;60.42
62055;BME280;48653;51.742;-1.256;2022-12-29T01:38:09;98598.80;;;6.28;61.21
62055;BME280;48653;51.742;-1.256;2022-12-29T01:40:43;98608.24;;;6.41;60.15
62055;BME280;48653;51.742;-1.256;2022-12-29T01:42:59;98605.39;;;5.49;62.55
62055;BME280;48653;51.742;-1.256;2022-12-29T01:45:25;98596.49;;;6.18;59.76
62055;BME280;48653;51.742;-1.256;2022-12-29T01:47:53;98601.87;;;6.01;60.88
62055;BME280;48653;51.742;-1.256;2022-12-29T01:50:19;98600.65;;;5.91;60.71
62055;BME280;48653;51.742;-1.256;2022-12-29T01:52:43;98600.18;;;5.30;62.50
62055;BME280;48653;51.742;-1.256;2022-12-29T01:55:07;98594.87;;;5.89;61.67
62055;BME280;48653;51.742;-1.256;2022-12-29T01:57:33;98592.15;;;5.54;61.63
62055;BME280;48653;51.742;-1.256;2022-12-29T02:00:00;98589.84;;;5.31;60.83
62055;BME280;48653;51.742;-1.256;2022-12-29T02:02:22;98593.99;;;5.73;61.66
62055;BME280;48653;51.742;-1.256;2022-12-29T02:04:46;98590.61;;;5.76;60.60
62055;BME280;48653;51.742;-1.256;2022-12-29T02:07:17;98592.49;;;5.62;60.16
62055;BME280;48653;51.742;-1.256;2022-12-29T02:09:38;98601.97;;;5.60;60.52
62055;BME280;48653;51.742;-1.256;2022-12-29T02:12:03;98593.13;;;5.48;61.29
62055;BME280;48653;51.742;-1.256;2022-12-29T02:14:29;98589.84;;;5.82;60.47
62055;BME280;48653;51.742;-1.256;2022-12-29T02:17:03;98596.91;;;5.74;60.80
62055;BME280;48653;51.742;-1.256;2022-12-29T02:21:56;98606.79;;;6.12;60.48
62055;BME280;48653;51.742;-1.256;2022-12-29T02:24:25;98610.04;;;5.84;60.81
62055;BME280;48653;51.742;-1.256;2022-12-29T02:26:48;98619.13;;;5.87;61.85
62055;BME280;48653;51.742;-1.256;2022-12-29T02:29:16;98628.80;;;5.97;60.08
62055;BME280;48653;51.742;-1.256;2022-12-29T02:31:30;98625.70;;;6.46;59.24
62055;BME280;48653;51.742;-1.256;2022-12-29T02:34:00;98640.95;;;6.24;58.86
62055;BME280;48653;51.742;-1.256;2022-12-29T02:36:24;98632.92;;;5.73;60.65
62055;BME280;48653;51.742;-1.256;2022-12-29T02:38:52;98626.97;;;6.09;60.17
62055;BME280;48653;51.742;-1.256;2022-12-29T02:41:10;98632.33;;;6.28;60.32
62055;BME280;48653;51.742;-1.256;2022-12-29T02:43:36;98630.41;;;6.25;61.09
62055;BME280;48653;51.742;-1.256;2022-12-29T02:46:03;98629.52;;;6.04;61.27
62055;BME280;48653;51.742;-1.256;2022-12-29T02:48:27;98628.38;;;5.84;61.70
62055;BME280;48653;51.742;-1.256;2022-12-29T02:50:53;98616.19;;;6.72;60.90
62055;BME280;48653;51.742;-1.256;2022-12-29T02:53:16;98622.43;;;6.22;60.47
62055;BME280;48653;51.742;-1.256;2022-12-29T02:55:47;98618.29;;;5.85;61.79
62055;BME280;48653;51.742;-1.256;2022-12-29T02:58:16;98621.96;;;6.11;61.90
62055;BME280;48653;51.742;-1.256;2022-12-29T03:00:30;98619.96;;;7.00;60.12
62055;BME280;48653;51.742;-1.256;2022-12-29T03:03:11;98618.90;;;6.46;60.75
62055;BME280;48653;51.742;-1.256;2022-12-29T03:05:37;98609.57;;;6.49;61.54
62055;BME280;48653;51.742;-1.256;2022-12-29T03:07:52;98608.22;;;6.41;61.65
62055;BME280;48653;51.742;-1.256;2022-12-29T03:10:21;98609.00;;;6.10;62.33
62055;BME280;48653;51.742;-1.256;2022-12-29T03:12:47;98592.55;;;6.14;62.48
62055;BME280;48653;51.742;-1.256;2022-12-29T03:15:07;98598.45;;;6.41;61.25
62055;BME280;48653;51.742;-1.256;2022-12-29T03:17:35;98586.91;;;6.43;61.45
62055;BME280;48653;51.742;-1.256;2022-12-29T03:19:58;98598.90;;;6.47;61.53
62055;BME280;48653;51.742;-1.256;2022-12-29T03:22:22;98603.76;;;6.51;61.68
62055;BME280;48653;51.742;-1.256;2022-12-29T03:24:47;98596.59;;;6.43;61.56
62055;BME280;48653;51.742;-1.256;2022-12-29T03:27:24;98602.61;;;6.48;61.64
62055;BME280;48653;51.742;-1.256;2022-12-29T03:29:38;98600.17;;;6.53;62.08
62055;BME280;48653;51.742;-1.256;2022-12-29T03:32:00;98607.76;;;6.45;62.40
62055;BME280;48653;51.742;-1.256;2022-12-29T03:34:25;98601.95;;;6.85;61.63
62055;BME280;48653;51.742;-1.256;2022-12-29T03:36:53;98611.50;;;7.04;60.80
62055;BME280;48653;51.742;-1.256;2022-12-29T03:39:17;98611.54;;;6.50;63.08
62055;BME280;48653;51.742;-1.256;2022-12-29T03:41:43;98623.31;;;6.26;65.15
62055;BME280;48653;51.742;-1.256;2022-12-29T03:44:07;98641.64;;;6.45;65.13
62055;BME280;48653;51.742;-1.256;2022-12-29T03:46:32;98638.37;;;6.26;66.30
62055;BME280;48653;51.742;-1.256;2022-12-29T03:48:57;98659.97;;;5.85;69.48
62055;BME280;48653;51.742;-1.256;2022-12-29T03:51:22;98655.52;;;6.01;69.40
62055;BME280;48653;51.742;-1.256;2022-12-29T03:53:47;98667.01;;;6.34;67.96
62055;BME280;48653;51.742;-1.256;2022-12-29T03:56:12;98671.52;;;6.00;68.62
62055;BME280;48653;51.742;-1.256;2022-12-29T03:58:37;98661.26;;;5.86;69.68
62055;BME280;48653;51.742;-1.256;2022-12-29T04:01:02;98666.83;;;6.38;68.27
62055;BME280;48653;51.742;-1.256;2022-12-29T04:03:28;98673.29;;;6.02;68.68
62055;BME280;48653;51.742;-1.256;2022-12-29T04:05:53;98676.94;;;6.34;68.27
62055;BME280;48653;51.742;-1.256;2022-12-29T04:08:18;98690.15;;;5.74;69.15
62055;BME280;48653;51.742;-1.256;2022-12-29T04:10:43;98688.17;;;6.08;69.13
62055;BME280;48653;51.742;-1.256;2022-12-29T04:13:09;98706.35;;;6.20;67.72
62055;BME280;48653;51.742;-1.256;2022-12-29T04:15:34;98717.85;;;6.07;68.26
62055;BME280;48653;51.742;-1.256;2022-12-29T04:17:59;98723.91;;;6.08;68.40
62055;BME280;48653;51.742;-1.256;2022-12-29T04:20:24;98723.85;;;6.42;67.34
62055;BME280;48653;51.742;-1.256;2022-12-29T04:22:50;98725.00;;;6.91;65.53
62055;BME280;48653;51.742;-1.256;2022-12-29T04:25:15;98740.24;;;6.22;66.85
62055;BME280;48653;51.742;-1.256;2022-12-29T04:27:40;98754.51;;;5.87;67.21
62055;BME280;48653;51.742;-1.256;2022-12-29T04:30:06;98755.97;;;6.23;67.38
62055;BME280;48653;51.742;-1.256;2022-12-29T04:32:30;98765.60;;;5.66;68.45
62055;BME280;48653;51.742;-1.256;2022-12-29T04:34:55;98770.34;;;5.96;67.22
62055;BME280;48653;51.742;-1.256;2022-12-29T04:37:20;98785.46;;;6.46;66.59
62055;BME280;48653;51.742;-1.256;2022-12-29T04:39:45;98786.48;;;6.49;66.76
62055;BME280;48653;51.742;-1.256;2022-12-29T04:42:10;98795.68;;;5.88;66.78
62055;BME280;48653;51.742;-1.256;2022-12-29T04:44:36;98803.94;;;6.06;65.98
62055;BME280;48653;51.742;-1.256;2022-12-29T04:47:01;98811.24;;;6.15;66.29
62055;BME280;48653;51.742;-1.256;2022-12-29T04:49:26;98817.81;;;6.04;65.89
62055;BME280;48653;51.742;-1.256;2022-12-29T04:51:51;98821.29;;;6.61;64.84
62055;BME280;48653;51.742;-1.256;2022-12-29T04:54:16;98822.82;;;6.73;63.72
62055;BME280;48653;51.742;-1.256;2022-12-29T04:56:41;98827.76;;;6.46;65.26
62055;BME280;48653;51.742;-1.256;2022-12-29T04:59:06;98838.60;;;6.20;64.74
62055;BME280;48653;51.742;-1.256;2022-12-29T05:01:31;98840.82;;;6.24;65.08
62055;BME280;48653;51.742;-1.256;2022-12-29T05:03:56;98854.87;;;6.59;64.02
62055;BME280;48653;51.742;-1.256;2022-12-29T05:06:22;98857.78;;;7.00;63.73
62055;BME280;48653;51.742;-1.256;2022-12-29T05:08:47;98862.54;;;6.73;64.17
62055;BME280;48653;51.742;-1.256;2022-12-29T05:11:12;98864.59;;;6.52;64.16
62055;BME280;48653;51.742;-1.256;2022-12-29T05:13:37;98866.44;;;6.50;64.06
62055;BME280;48653;51.742;-1.256;2022-12-29T05:16:03;98879.20;;;6.82;62.47
62055;BME280;48653;51.742;-1.256;2022-12-29T05:18:27;98884.51;;;6.95;62.54
62055;BME280;48653;51.742;-1.256;2022-12-29T05:20:53;98900.90;;;6.25;63.75
62055;BME280;48653;51.742;-1.256;2022-12-29T05:23:18;98905.09;;;6.87;62.73
62055;BME280;48653;51.742;-1.256;2022-12-29T05:25:44;98910.18;;;6.75;62.36
62055;BME280;48653;51.742;-1.256;2022-12-29T05:28:08;98916.08;;;6.74;61.59
62055;BME280;48653;51.742;-1.256;2022-12-29T05:30:33;98928.05;;;6.57;62.20
62055;BME280;48653;51.742;-1.256;2022-12-29T05:32:58;98933.02;;;6.98;61.36
62055;BME280;48653;51.742;-1.256;2022-12-29T05:35:23;98944.17;;;6.17;63.76
62055;BME280;48653;51.742;-1.256;2022-12-29T05:37:48;98951.51;;;6.11;64.47
62055;BME280;48653;51.742;-1.256;2022-12-29T05:40:14;98953.74;;;6.11;63.12
62055;BME280;48653;51.742;-1.256;2022-12-29T05:42:40;98951.91;;;6.86;61.25
62055;BME280;48653;51.742;-1.256;2022-12-29T05:45:06;98959.66;;;6.36;61.65
62055;BME280;48653;51.742;-1.256;2022-12-29T05:47:35;98966.15;;;6.73;60.39
62055;BME280;48653;51.742;-1.256;2022-12-29T05:49:55;98968.62;;;6.41;61.65
62055;BME280;48653;51.742;-1.256;2022-12-29T05:52:20;98975.80;;;6.28;60.75
62055;BME280;48653;51.742;-1.256;2022-12-29T05:54:46;98980.59;;;6.22;61.65
62055;BME280;48653;51.742;-1.256;2022-12-29T05:57:11;98986.18;;;5.66;63.60
62055;BME280;48653;51.742;-1.256;2022-12-29T05:59:36;98996.60;;;5.79;64.24
62055;BME280;48653;51.742;-1.256;2022-12-29T06:02:01;98997.60;;;6.00;63.31
62055;BME280;48653;51.742;-1.256;2022-12-29T06:04:26;98998.50;;;6.30;61.95
62055;BME280;48653;51.742;-1.256;2022-12-29T06:06:51;99010.29;;;6.19;61.87
62055;BME280;48653;51.742;-1.256;2022-12-29T06:09:16;99021.38;;;6.06;61.82
62055;BME280;48653;51.742;-1.256;2022-12-29T06:11:42;99025.77;;;6.36;61.42
62055;BME280;48653;51.742;-1.256;2022-12-29T06:14:07;99034.58;;;5.43;63.72
62055;BME280;48653;51.742;-1.256;2022-12-29T06:16:32;99037.84;;;5.90;62.54
62055;BME280;48653;51.742;-1.256;2022-12-29T06:18:57;99040.05;;;6.58;61.38
62055;BME280;48653;51.742;-1.256;2022-12-29T06:21:22;99041.14;;;5.80;61.75
62055;BME280;48653;51.742;-1.256;2022-12-29T06:23:48;99044.34;;;5.65;63.58
62055;BME280;48653;51.742;-1.256;2022-12-29T06:26:12;99049.14;;;6.19;61.81
62055;BME280;48653;51.742;-1.256;2022-12-29T06:28:38;99049.95;;;5.36;63.35
62055;BME280;48653;51.742;-1.256;2022-12-29T06:31:03;99055.44;;;5.57;63.26
62055;BME280;48653;51.742;-1.256;2022-12-29T06:33:28;99058.44;;;6.23;61.22
62055;BME280;48653;51.742;-1.256;2022-12-29T06:35:53;99064.82;;;6.14;61.59
62055;BME280;48653;51.742;-1.256;2022-12-29T06:38:18;99077.99;;;6.18;60.91
62055;BME280;48653;51.742;-1.256;2022-12-29T06:40:43;99076.67;;;5.99;61.16
62055;BME280;48653;51.742;-1.256;2022-12-29T06:43:08;99083.68;;;6.17;60.89
62055;BME280;48653;51.742;-1.256;2022-12-29T06:45:33;99089.01;;;5.34;63.31
62055;BME280;48653;51.742;-1.256;2022-12-29T06:47:59;99093.47;;;5.64;62.68
62055;BME280;48653;51.742;-1.256;2022-12-29T06:50:24;99095.96;;;5.26;62.55
62055;BME280;48653;51.742;-1.256;2022-12-29T06:52:49;99097.23;;;6.34;60.66
62055;BME280;48653;51.742;-1.256;2022-12-29T06:55:14;99100.85;;;5.63;61.86
62055;BME280;48653;51.742;-1.256;2022-12-29T06:57:39;99096.02;;;5.47;61.76
62055;BME280;48653;51.742;-1.256;2022-12-29T07:00:05;99096.27;;;5.14;63.50
62055;BME280;48653;51.742;-1.256;2022-12-29T07:02:29;99099.32;;;5.59;63.29
62055;BME280;48653;51.742;-1.256;2022-12-29T07:04:55;99107.07;;;5.57;63.33
62055;BME280;48653;51.742;-1.256;2022-12-29T07:07:20;99108.10;;;5.88;62.19
62055;BME280;48653;51.742;-1.256;2022-12-29T07:09:45;99105.75;;;6.00;62.48
62055;BME280;48653;51.742;-1.256;2022-12-29T07:12:10;99112.72;;;5.67;62.71
62055;BME280;48653;51.742;-1.256;2022-12-29T07:14:35;99114.87;;;5.64;63.25
62055;BME280;48653;51.742;-1.256;2022-12-29T07:17:00;99120.16;;;5.55;62.25
62055;BME280;48653;51.742;-1.256;2022-12-29T07:19:25;99128.58;;;6.00;61.78
62055;BME280;48653;51.742;-1.256;2022-12-29T07:21:50;99134.89;;;5.88;61.69
62055;BME280;48653;51.742;-1.256;2022-12-29T07:24:15;99138.85;;;5.74;62.82
62055;BME280;48653;51.742;-1.256;2022-12-29T07:26:41;99138.92;;;5.50;62.72
62055;BME280;48653;51.742;-1.256;2022-12-29T07:29:05;99146.93;;;5.97;61.77
62055;BME280;48653;51.742;-1.256;2022-12-29T07:31:31;99151.96;;;5.68;61.42
62055;BME280;48653;51.742;-1.256;2022-12-29T07:33:55;99154.56;;;5.94;61.46
62055;BME280;48653;51.742;-1.256;2022-12-29T07:36:21;99155.93;;;5.96;61.36
62055;BME280;48653;51.742;-1.256;2022-12-29T07:38:46;99158.24;;;6.42;60.37
62055;BME280;48653;51.742;-1.256;2022-12-29T07:41:11;99166.85;;;5.69;62.05
62055;BME280;48653;51.742;-1.256;2022-12-29T07:43:36;99168.76;;;5.73;62.91
62055;BME280;48653;51.742;-1.256;2022-12-29T07:46:01;99174.79;;;5.52;62.69
62055;BME280;48653;51.742;-1.256;2022-12-29T07:48:27;99174.86;;;5.94;62.11
62055;BME280;48653;51.742;-1.256;2022-12-29T07:50:52;99181.41;;;5.25;63.62
62055;BME280;48653;51.742;-1.256;2022-12-29T07:53:16;99185.23;;;5.52;62.48
62055;BME280;48653;51.742;-1.256;2022-12-29T07:55:42;99194.29;;;5.74;63.31
62055;BME280;48653;51.742;-1.256;2022-12-29T07:58:07;99195.56;;;5.12;64.45
62055;BME280;48653;51.742;-1.256;2022-12-29T08:00:32;99200.95;;;5.20;63.55
62055;BME280;48653;51.742;-1.256;2022-12-29T08:02:58;99200.63;;;5.48;63.86
62055;BME280;48653;51.742;-1.256;2022-12-29T08:05:23;99200.30;;;6.07;61.89
62055;BME280;48653;51.742;-1.256;2022-12-29T08:07:48;99206.33;;;5.90;63.07
62055;BME280;48653;51.742;-1.256;2022-12-29T08:10:14;99203.98;;;5.85;62.89
62055;BME280;48653;51.742;-1.256;2022-12-29T08:12:39;99215.17;;;5.80;63.75
62055;BME280;48653;51.742;-1.256;2022-12-29T08:15:06;99222.84;;;5.46;64.83
62055;BME280;48653;51.742;-1.256;2022-12-29T08:17:29;99239.14;;;5.47;65.76
62055;BME280;48653;51.742;-1.256;2022-12-29T08:19:54;99229.37;;;5.14;67.21
62055;BME280;48653;51.742;-1.256;2022-12-29T08:22:19;99232.68;;;4.94;68.56
62055;BME280;48653;51.742;-1.256;2022-12-29T08:24:44;99240.09;;;5.00;67.87
62055;BME280;48653;51.742;-1.256;2022-12-29T08:27:09;99235.64;;;4.62;69.35
62055;BME280;48653;51.742;-1.256;2022-12-29T08:29:34;99232.33;;;4.29;68.90
62055;BME280;48653;51.742;-1.256;2022-12-29T08:31:59;99238.30;;;4.77;68.88
62055;BME280;48653;51.742;-1.256;2022-12-29T08:34:24;99232.50;;;4.76;68.93
62055;BME280;48653;51.742;-1.256;2022-12-29T08:36:49;99232.15;;;4.96;67.46
62055;BME280;48653;51.742;-1.256;2022-12-29T08:39:15;99233.57;;;5.18;67.14
62055;BME280;48653;51.742;-1.256;2022-12-29T08:41:40;99250.31;;;5.91;64.22
62055;BME280;48653;51.742;-1.256;2022-12-29T08:44:05;99256.45;;;5.31;64.81
62055;BME280;48653;51.742;-1.256;2022-12-29T08:46:30;99269.25;;;5.03;65.36
62055;BME280;48653;51.742;-1.256;2022-12-29T08:48:55;99267.63;;;5.41;64.56
62055;BME280;48653;51.742;-1.256;2022-12-29T08:51:20;99281.40;;;5.18;65.68
62055;BME280;48653;51.742;-1.256;2022-12-29T08:53:45;99276.76;;;5.22;65.53
62055;BME280;48653;51.742;-1.256;2022-12-29T08:56:10;99287.48;;;5.21;65.65
62055;BME280;48653;51.742;-1.256;2022-12-29T08:58:36;99290.65;;;4.80;66.52
62055;BME280;48653;51.742;-1.256;2022-12-29T09:01:01;99299.82;;;4.88;64.64
62055;BME280;48653;51.742;-1.256;2022-12-29T09:03:26;99296.68;;;5.43;62.36
62055;BME280;48653;51.742;-1.256;2022-12-29T09:05:53;99301.41;;;4.78;63.58
62055;BME280;48653;51.742;-1.256;2022-12-29T09:08:16;99296.85;;;6.06;60.82
62055;BME280;48653;51.742;-1.256;2022-12-29T09:10:41;99308.98;;;5.84;61.06
62055;BME280;48653;51.742;-1.256;2022-12-29T09:13:06;99318.60;;;4.93;63.65
62055;BME280;48653;51.742;-1.256;2022-12-29T09:15:31;99319.74;;;5.62;63.15
62055;BME280;48653;51.742;-1.256;2022-12-29T09:17:56;99327.51;;;5.12;63.54
62055;BME280;48653;51.742;-1.256;2022-12-29T09:20:21;99336.35;;;6.21;61.85
62055;BME280;48653;51.742;-1.256;2022-12-29T09:22:47;99342.31;;;5.65;63.08
62055;BME280;48653;51.742;-1.256;2022-12-29T09:25:12;99338.70;;;5.58;62.16
62055;BME280;48653;51.742;-1.256;2022-12-29T09:27:37;99336.74;;;5.04;64.84
62055;BME280;48653;51.742;-1.256;2022-12-29T09:30:03;99336.73;;;5.18;64.48
62055;BME280;48653;51.742;-1.256;2022-12-29T09:32:27;99349.75;;;5.53;65.05
62055;BME280;48653;51.742;-1.256;2022-12-29T09:34:52;99340.07;;;5.84;63.81
62055;BME280;48653;51.742;-1.256;2022-12-29T09:37:17;99351.18;;;6.05;63.85
62055;BME280;48653;51.742;-1.256;2022-12-29T09:39:42;99352.04;;;5.75;63.19
62055;BME280;48653;51.742;-1.256;2022-12-29T09:42:12;99354.98;;;5.28;63.63
62055;BME280;48653;51.742;-1.256;2022-12-29T09:44:44;99361.30;;;5.79;61.96
62055;BME280;48653;51.742;-1.256;2022-12-29T09:46:58;99370.35;;;5.32;63.42
62055;BME280;48653;51.742;-1.256;2022-12-29T09:49:28;99372.02;;;5.73;62.27
62055;BME280;48653;51.742;-1.256;2022-12-29T09:51:50;99374.38;;;5.55;62.49
62055;BME280;48653;51.742;-1.256;2022-12-29T09:54:26;99374.52;;;5.15;63.70
62055;BME280;48653;51.742;-1.256;2022-12-29T09:56:38;99379.57;;;5.56;62.77
62055;BME280;48653;51.742;-1.256;2022-12-29T09:59:10;99372.87;;;5.29;63.73
62055;BME280;48653;51.742;-1.256;2022-12-29T10:01:31;99380.24;;;5.73;62.84
62055;BME280;48653;51.742;-1.256;2022-12-29T10:03:56;99381.15;;;5.50;63.93
62055;BME280;48653;51.742;-1.256;2022-12-29T10:06:22;99385.46;;;5.09;64.38
62055;BME280;48653;51.742;-1.256;2022-12-29T10:08:47;99386.85;;;4.78;65.60
62055;BME280;48653;51.742;-1.256;2022-12-29T10:11:17;99392.43;;;5.10;65.16
62055;BME280;48653;51.742;-1.256;2022-12-29T10:13:42;99400.74;;;5.67;63.94
62055;BME280;48653;51.742;-1.256;2022-12-29T10:16:04;99407.67;;;5.55;63.97
62055;BME280;48653;51.742;-1.256;2022-12-29T10:18:37;99411.17;;;5.73;64.02
62055;BME280;48653;51.742;-1.256;2022-12-29T10:20:52;99408.20;;;5.30;64.96
62055;BME280;48653;51.742;-1.256;2022-12-29T10:23:24;99415.48;;;5.13;65.12
62055;BME280;48653;51.742;-1.256;2022-12-29T10:25:41;99416.14;;;5.65;63.82
62055;BME280;48653;51.742;-1.256;2022-12-29T10:28:10;99424.45;;;5.18;64.96
62055;BME280;48653;51.742;-1.256;2022-12-29T10:30:30;99419.66;;;4.80;65.48
62055;BME280;48653;51.742;-1.256;2022-12-29T10:32:56;99427.78;;;4.86;65.33
62055;BME280;48653;51.742;-1.256;2022-12-29T10:35:22;99434.17;;;5.28;63.18
62055;BME280;48653;51.742;-1.256;2022-12-29T10:37:49;99427.15;;;4.93;64.39
62055;BME280;48653;51.742;-1.256;2022-12-29T10:40:16;99428.16;;;5.33;64.21
62055;BME280;48653;51.742;-1.256;2022-12-29T10:42:39;99431.02;;;4.99;64.58
62055;BME280;48653;51.742;-1.256;2022-12-29T10:45:00;99432.34;;;5.02;65.14
62055;BME280;48653;51.742;-1.256;2022-12-29T10:47:31;99429.55;;;5.32;65.34
62055;BME280;48653;51.742;-1.256;2022-12-29T10:49:51;99434.14;;;5.20;64.20
62055;BME280;48653;51.742;-1.256;2022-12-29T10:52:17;99430.94;;;5.20;64.48
62055;BME280;48653;51.742;-1.256;2022-12-29T10:54:45;99436.37;;;5.47;63.74
62055;BME280;48653;51.742;-1.256;2022-12-29T10:57:10;99441.81;;;5.99;62.64
62055;BME280;48653;51.742;-1.256;2022-12-29T10:59:33;99447.19;;;6.26;61.50
62055;BME280;48653;51.742;-1.256;2022-12-29T11:02:04;99450.50;;;5.76;63.07
62055;BME280;48653;51.742;-1.256;2022-12-29T11:04:32;99450.82;;;5.61;62.57
62055;BME280;48653;51.742;-1.256;2022-12-29T11:06:46;99459.42;;;5.27;64.49
62055;BME280;48653;51.742;-1.256;2022-12-29T11:09:15;99460.73;;;5.48;63.40
62055;BME280;48653;51.742;-1.256;2022-12-29T11:11:37;99447.28;;;5.28;64.55
62055;BME280;48653;51.742;-1.256;2022-12-29T11:14:08;99451.62;;;5.20;64.17
62055;BME280;48653;51.742;-1.256;2022-12-29T11:16:29;99454.87;;;5.99;62.22
62055;BME280;48653;51.742;-1.256;2022-12-29T11:18:52;99454.37;;;5.85;63.03
62055;BME280;48653;51.742;-1.256;2022-12-29T11:21:30;99461.41;;;6.02;61.44
62055;BME280;48653;51.742;-1.256;2022-12-29T11:23:42;99460.78;;;5.55;62.31
62055;BME280;48653;51.742;-1.256;2022-12-29T11:26:14;99455.56;;;5.53;62.98
62055;BME280;48653;51.742;-1.256;2022-12-29T11:28:32;99464.30;;;5.67;61.76
62055;BME280;48653;51.742;-1.256;2022-12-29T11:30:59;99467.79;;;4.88;62.63
62055;BME280;48653;51.742;-1.256;2022-12-29T11:33:23;99478.88;;;5.56;60.50
62055;BME280;48653;51.742;-1.256;2022-12-29T11:35:48;99482.22;;;5.46;61.11
62055;BME280;48653;51.742;-1.256;2022-12-29T11:38:19;99486.79;;;5.47;61.43
62055;BME280;48653;51.742;-1.256;2022-12-29T11:40:39;99485.62;;;5.38;61.44
62055;BME280;48653;51.742;-1.256;2022-12-29T11:43:04;99484.20;;;5.88;59.09
62055;BME280;48653;51.742;-1.256;2022-12-29T11:45:30;99491.53;;;5.71;59.30
62055;BME280;48653;51.742;-1.256;2022-12-29T11:47:56;99495.92;;;5.35;60.68
62055;BME280;48653;51.742;-1.256;2022-12-29T11:50:21;99484.30;;;5.46;61.31
62055;BME280;48653;51.742;-1.256;2022-12-29T11:52:44;99493.06;;;5.38;60.57
62055;BME280;48653;51.742;-1.256;2022-12-29T11:55:17;99499.68;;;5.62;60.42
62055;BME280;48653;51.742;-1.256;2022-12-29T11:57:34;99506.83;;;5.98;59.24
62055;BME280;48653;51.742;-1.256;2022-12-29T12:00:00;99496.27;;;5.16;60.16
62055;BME280;48653;51.742;-1.256;2022-12-29T12:02:36;99499.50;;;5.76;59.81
62055;BME280;48653;51.742;-1.256;2022-12-29T12:04:53;99498.23;;;6.31;58.95
62055;BME280;48653;51.742;-1.256;2022-12-29T12:07:18;99500.13;;;6.41;58.08
62055;BME280;48653;51.742;-1.256;2022-12-29T12:09:45;99507.63;;;6.17;58.94
62055;BME280;48653;51.742;-1.256;2022-12-29T12:12:07;99513.52;;;5.78;59.47
62055;BME280;48653;51.742;-1.256;2022-12-29T12:14:34;99508.76;;;5.75;60.16
62055;BME280;48653;51.742;-1.256;2022-12-29T12:16:57;99517.91;;;5.64;60.09
62055;BME280;48653;51.742;-1.256;2022-12-29T12:19:27;99520.05;;;5.16;61.29
62055;BME280;48653;51.742;-1.256;2022-12-29T12:21:50;99516.28;;;5.67;61.40
62055;BME280;48653;51.742;-1.256;2022-12-29T12:24:22;99520.52;;;5.41;60.09
62055;BME280;48653;51.742;-1.256;2022-12-29T12:26:39;99516.20;;;5.23;59.10
62055;BME280;48653;51.742;-1.256;2022-12-29T12:29:05;99523.87;;;5.57;57.85
62055;BME280;48653;51.742;-1.256;2022-12-29T12:31:38;99516.38;;;6.73;56.43
62055;BME280;48653;51.742;-1.256;2022-12-29T12:33:55;99518.19;;;7.34;55.92
62055;BME280;48653;51.742;-1.256;2022-12-29T12:36:26;99515.16;;;6.93;57.01
62055;BME280;48653;51.742;-1.256;2022-12-29T12:38:48;99522.46;;;6.47;57.03
62055;BME280;48653;51.742;-1.256;2022-12-29T12:41:09;99523.30;;;7.51;56.03
62055;BME280;48653;51.742;-1.256;2022-12-29T12:43:41;99532.10;;;6.85;55.28
62055;BME280;48653;51.742;-1.256;2022-12-29T12:46:12;99526.79;;;6.91;56.74
62055;BME280;48653;51.742;-1.256;2022-12-29T12:48:35;99531.39;;;5.57;59.62
62055;BME280;48653;51.742;-1.256;2022-12-29T12:50:53;99535.86;;;5.66;59.89
62055;BME280;48653;51.742;-1.256;2022-12-29T12:53:23;99531.40;;;5.45;60.48